Time;durP1;ratioP1;P1;durP2;ratioP2;P2;SDS_P1;SDS_P2;PMS_P1;PMS_P2;Temp;Humidity;BMP_temperature;BMP_pressure;BME280_temperature;BME280_humidity;BME280_pressure;Samples;Min_cycle;Max_cycle;Signal;HPM_P1;HPM_P2
2022/07/13 00:01:59;;;;;;;4.13;1.10;;;;;;;;;;4970155;28;20509;-62
2022/07/13 00:04:24;;;;;;;2.42;0.75;;;;;;;;;;4969660;28;20372;-62
2022/07/13 00:06:49;;;;;;;2.53;0.93;;;;;;;;;;4970094;28;20416;-61
2022/07/13 00:09:15;;;;;;;2.03;0.93;;;;;;;;;;4969644;28;20428;-62
2022/07/13 00:11:40;;;;;;;3.28;1.33;;;;;;;;;;4969651;28;20417;-62
2022/07/13 00:14:05;;;;;;;1.75;0.90;;;;;;;;;;4969898;28;20432;-61
2022/07/13 00:16:31;;;;;;;1.77;0.80;;;;;;;;;;4969309;28;20473;-62
2022/07/13 00:18:56;;;;;;;1.92;0.93;;;;;;;;;;4971343;28;20345;-61
2022/07/13 00:21:22;;;;;;;1.55;0.82;;;;;;;;;;4969456;28;20332;-62
2022/07/13 00:23:48;;;;;;;1.27;0.77;;;;;;;;;;4968956;28;20421;-62
2022/07/13 00:26:13;;;;;;;1.92;0.70;;;;;;;;;;4968920;28;20387;-61
2022/07/13 00:28:38;;;;;;;2.25;0.93;;;;;;;;;;4968681;28;20376;-62
2022/07/13 00:31:04;;;;;;;3.55;0.98;;;;;;;;;;4969252;28;20436;-61
2022/07/13 00:33:29;;;;;;;1.67;0.90;;;;;;;;;;4969272;28;20506;-61
2022/07/13 00:35:55;;;;;;;1.48;0.75;;;;;;;;;;4969652;28;20519;-62
2022/07/13 00:38:20;;;;;;;1.05;0.70;;;;;;;;;;4969438;28;20029;-62
2022/07/13 00:40:46;;;;;;;1.38;0.70;;;;;;;;;;4969429;28;20325;-62
2022/07/13 00:43:11;;;;;;;1.70;0.75;;;;;;;;;;4951562;28;20403;-62
2022/07/13 00:45:36;;;;;;;2.25;0.93;;;;;;;;;;4969045;28;20053;-62
2022/07/13 00:48:02;;;;;;;1.77;0.90;;;;;;;;;;4969501;28;20038;-62
2022/07/13 00:50:28;;;;;;;3.60;0.77;;;;;;;;;;4968927;28;20434;-62
2022/07/13 00:52:53;;;;;;;2.08;0.70;;;;;;;;;;4969209;28;20052;-62
2022/07/13 00:55:19;;;;;;;2.38;0.85;;;;;;;;;;4969078;28;20302;-61
2022/07/13 00:57:44;;;;;;;1.45;0.60;;;;;;;;;;4968892;28;20451;-62
2022/07/13 01:00:14;;;;;;;4.53;0.90;;;;;;;;;;4968622;28;20025;-63
2022/07/13 01:02:41;;;;;;;2.00;0.77;;;;;;;;;;4979998;28;20456;-62
2022/07/13 01:05:07;;;;;;;0.75;0.60;;;;;;;;;;4969300;28;20061;-62
2022/07/13 01:07:33;;;;;;;1.23;0.70;;;;;;;;;;4968699;28;20029;-62
2022/07/13 01:10:00;;;;;;;0.93;0.60;;;;;;;;;;4968753;28;20033;-62
2022/07/13 01:12:29;;;;;;;0.93;0.55;;;;;;;;;;4970415;28;20307;-61
2022/07/13 01:14:56;;;;;;;1.85;0.90;;;;;;;;;;4968916;28;20091;-62
2022/07/13 01:17:21;;;;;;;1.77;0.82;;;;;;;;;;4951225;28;20400;-61
2022/07/13 01:19:48;;;;;;;1.83;0.65;;;;;;;;;;4968994;28;20051;-62
2022/07/13 01:22:17;;;;;;;1.10;0.60;;;;;;;;;;4968922;28;20417;-62
2022/07/13 01:24:42;;;;;;;1.27;0.88;;;;;;;;;;4951232;28;20351;-62
2022/07/13 01:27:09;;;;;;;1.80;1.13;;;;;;;;;;4968860;28;20355;-62
2022/07/13 01:29:35;;;;;;;1.00;0.73;;;;;;;;;;4950423;28;20361;-62
2022/07/13 01:32:02;;;;;;;2.75;0.82;;;;;;;;;;4969707;28;20318;-63
2022/07/13 01:34:27;;;;;;;2.65;0.80;;;;;;;;;;4969137;28;20356;-62
2022/07/13 01:36:53;;;;;;;2.80;0.90;;;;;;;;;;4968968;28;20030;-61
2022/07/13 01:39:18;;;;;;;1.67;0.70;;;;;;;;;;4971925;28;20387;-62
2022/07/13 01:41:43;;;;;;;1.73;0.80;;;;;;;;;;4972831;28;20034;-62
2022/07/13 01:44:09;;;;;;;1.13;0.50;;;;;;;;;;4972250;28;20475;-62
2022/07/13 01:46:36;;;;;;;2.22;1.13;;;;;;;;;;4972145;28;20440;-65
2022/07/13 01:49:01;;;;;;;3.00;1.58;;;;;;;;;;4972358;28;20071;-62
2022/07/13 01:51:27;;;;;;;3.22;0.85;;;;;;;;;;4973987;28;20480;-62
2022/07/13 01:53:52;;;;;;;1.10;0.80;;;;;;;;;;4972174;28;20527;-62
2022/07/13 01:56:17;;;;;;;0.90;0.60;;;;;;;;;;4972165;28;20343;-62
2022/07/13 01:58:43;;;;;;;2.00;1.02;;;;;;;;;;4972377;28;20432;-62
2022/07/13 02:01:08;;;;;;;1.15;0.80;;;;;;;;;;4971736;28;20326;-62
2022/07/13 02:03:34;;;;;;;1.20;0.77;;;;;;;;;;4972085;28;20425;-62
2022/07/13 02:05:59;;;;;;;1.27;0.68;;;;;;;;;;4972290;28;20079;-61
2022/07/13 02:08:25;;;;;;;0.93;0.60;;;;;;;;;;4971357;28;20444;-62
2022/07/13 02:10:51;;;;;;;1.33;0.70;;;;;;;;;;4971878;28;20425;-61
2022/07/13 02:13:16;;;;;;;1.80;0.98;;;;;;;;;;4971539;28;20395;-62
2022/07/13 02:15:42;;;;;;;1.60;0.88;;;;;;;;;;4972273;28;20521;-62
2022/07/13 02:18:08;;;;;;;2.50;0.82;;;;;;;;;;4971494;28;20030;-62
2022/07/13 02:20:34;;;;;;;2.60;0.60;;;;;;;;;;4971677;28;20442;-62
2022/07/13 02:23:00;;;;;;;1.58;0.88;;;;;;;;;;4972716;28;20429;-62
2022/07/13 02:25:25;;;;;;;2.30;0.80;;;;;;;;;;4971569;28;20317;-62
2022/07/13 02:27:51;;;;;;;1.27;0.73;;;;;;;;;;4971605;28;20127;-62
2022/07/13 02:30:16;;;;;;;3.13;0.98;;;;;;;;;;4971047;28;20081;-61
2022/07/13 02:32:43;;;;;;;1.63;0.80;;;;;;;;;;4971705;28;20472;-61
2022/07/13 02:35:09;;;;;;;4.55;1.10;;;;;;;;;;4953274;28;20436;-61
2022/07/13 02:37:35;;;;;;;0.75;0.35;;;;;;;;;;4972366;28;20432;-62
2022/07/13 02:40:01;;;;;;;1.85;0.70;;;;;;;;;;4970999;28;20444;-62
2022/07/13 02:42:26;;;;;;;3.95;0.88;;;;;;;;;;4970842;28;20095;-63
2022/07/13 02:44:52;;;;;;;1.58;0.57;;;;;;;;;;4971676;28;20029;-62
2022/07/13 02:47:18;;;;;;;2.42;0.73;;;;;;;;;;4971830;28;20399;-62
2022/07/13 02:49:43;;;;;;;1.88;0.77;;;;;;;;;;4970828;28;20351;-62
2022/07/13 02:52:09;;;;;;;1.63;0.57;;;;;;;;;;4972859;28;20356;-62
2022/07/13 02:54:34;;;;;;;2.08;0.80;;;;;;;;;;4970666;28;20436;-62
2022/07/13 02:57:00;;;;;;;3.97;0.70;;;;;;;;;;4971169;28;20324;-62
2022/07/13 02:59:25;;;;;;;2.58;1.02;;;;;;;;;;4970673;28;20026;-62
2022/07/13 03:01:50;;;;;;;1.00;0.55;;;;;;;;;;4971977;28;20409;-62
2022/07/13 03:04:16;;;;;;;1.05;0.70;;;;;;;;;;4970704;28;20030;-62
2022/07/13 03:06:42;;;;;;;1.83;0.95;;;;;;;;;;4970056;28;20397;-62
2022/07/13 03:09:07;;;;;;;1.55;0.55;;;;;;;;;;4970889;28;20444;-61
2022/07/13 03:11:34;;;;;;;1.45;0.77;;;;;;;;;;4970570;28;20436;-62
2022/07/13 03:14:01;;;;;;;0.80;0.52;;;;;;;;;;4970391;28;20363;-61
2022/07/13 03:16:27;;;;;;;1.52;0.90;;;;;;;;;;4970457;28;20508;-62
2022/07/13 03:18:52;;;;;;;1.48;0.88;;;;;;;;;;4972515;28;20432;-61
2022/07/13 03:21:18;;;;;;;1.58;0.70;;;;;;;;;;4970305;28;20395;-62
2022/07/13 03:23:43;;;;;;;4.50;0.70;;;;;;;;;;4970746;28;20402;-62
2022/07/13 03:26:08;;;;;;;3.15;0.70;;;;;;;;;;4970687;28;20510;-62
2022/07/13 03:28:34;;;;;;;3.25;0.65;;;;;;;;;;4969976;28;20339;-62
2022/07/13 03:30:59;;;;;;;2.08;0.65;;;;;;;;;;4970326;28;20454;-62
2022/07/13 03:33:24;;;;;;;3.78;0.75;;;;;;;;;;4970922;28;20057;-62
2022/07/13 03:35:50;;;;;;;1.13;0.77;;;;;;;;;;4969777;28;20033;-62
2022/07/13 03:38:15;;;;;;;1.55;0.82;;;;;;;;;;4969961;28;20448;-61
2022/07/13 03:40:40;;;;;;;2.13;0.98;;;;;;;;;;4969943;28;20389;-61
2022/07/13 03:43:06;;;;;;;1.20;0.70;;;;;;;;;;4969972;28;20367;-62
2022/07/13 03:45:31;;;;;;;2.30;0.85;;;;;;;;;;4970056;28;20034;-62
2022/07/13 03:47:57;;;;;;;3.63;0.88;;;;;;;;;;4969793;28;20022;-62
2022/07/13 03:50:22;;;;;;;2.40;0.60;;;;;;;;;;4969595;28;20440;-62
2022/07/13 03:52:48;;;;;;;1.85;0.68;;;;;;;;;;4969818;28;20298;-62
2022/07/13 03:55:14;;;;;;;2.13;0.82;;;;;;;;;;4969981;28;20494;-62
2022/07/13 03:57:40;;;;;;;0.65;0.60;;;;;;;;;;4969519;28;20519;-62
2022/07/13 04:00:06;;;;;;;1.27;0.80;;;;;;;;;;4969376;28;20515;-61
2022/07/13 04:02:32;;;;;;;0.77;0.50;;;;;;;;;;4969639;28;20380;-61
2022/07/13 04:04:57;;;;;;;1.63;0.60;;;;;;;;;;4969906;28;20344;-62
2022/07/13 04:07:22;;;;;;;1.67;0.63;;;;;;;;;;4969817;28;20324;-62
2022/07/13 04:09:48;;;;;;;0.63;0.50;;;;;;;;;;4969294;28;20468;-65
2022/07/13 04:12:13;;;;;;;1.35;0.50;;;;;;;;;;4971444;28;20539;-61
2022/07/13 04:14:38;;;;;;;1.48;0.77;;;;;;;;;;4969666;28;20350;-62
2022/07/13 04:17:04;;;;;;;1.20;0.70;;;;;;;;;;4969874;28;20525;-62
2022/07/13 04:19:29;;;;;;;1.20;0.70;;;;;;;;;;4970042;28;20202;-62
2022/07/13 04:21:55;;;;;;;1.10;0.70;;;;;;;;;;4969372;28;20550;-63
2022/07/13 04:24:21;;;;;;;2.65;0.70;;;;;;;;;;4969897;28;20413;-65
2022/07/13 04:26:47;;;;;;;0.75;0.50;;;;;;;;;;4969534;28;20047;-61
2022/07/13 04:29:12;;;;;;;1.42;0.95;;;;;;;;;;4970233;28;20049;-61
2022/07/13 04:31:38;;;;;;;1.15;0.70;;;;;;;;;;4969254;28;20507;-62
2022/07/13 04:34:03;;;;;;;0.93;0.50;;;;;;;;;;4969400;28;20424;-62
2022/07/13 04:36:28;;;;;;;2.90;0.85;;;;;;;;;;4969117;28;20471;-61
2022/07/13 04:38:54;;;;;;;1.73;0.95;;;;;;;;;;4968881;28;20120;-61
2022/07/13 04:41:19;;;;;;;1.77;0.98;;;;;;;;;;4969400;28;20321;-62
2022/07/13 04:43:45;;;;;;;3.13;0.65;;;;;;;;;;4969207;28;20316;-62
2022/07/13 04:46:12;;;;;;;2.42;0.80;;;;;;;;;;4969463;28;20341;-62
2022/07/13 04:48:38;;;;;;;1.30;0.60;;;;;;;;;;4969431;28;20099;-61
2022/07/13 04:51:04;;;;;;;1.92;0.70;;;;;;;;;;4969318;28;20030;-62
2022/07/13 04:53:30;;;;;;;1.52;0.82;;;;;;;;;;4969441;28;20494;-64
2022/07/13 04:55:56;;;;;;;1.85;0.77;;;;;;;;;;4969809;28;21134;-61
2022/07/13 04:58:21;;;;;;;2.03;0.80;;;;;;;;;;4969645;28;20421;-61
2022/07/13 05:00:46;;;;;;;2.97;0.68;;;;;;;;;;4969812;28;20095;-62
2022/07/13 05:03:12;;;;;;;1.42;0.90;;;;;;;;;;4968930;28;20344;-62
2022/07/13 05:05:37;;;;;;;1.65;0.82;;;;;;;;;;4968866;28;20437;-62
2022/07/13 05:08:03;;;;;;;1.73;0.77;;;;;;;;;;4969212;28;20309;-62
2022/07/13 05:10:29;;;;;;;1.73;0.73;;;;;;;;;;4969034;28;20325;-63
2022/07/13 05:12:54;;;;;;;1.38;0.75;;;;;;;;;;4971026;28;20333;-63
2022/07/13 05:15:20;;;;;;;1.08;0.45;;;;;;;;;;4973707;28;20171;-61
2022/07/13 05:17:45;;;;;;;1.63;0.77;;;;;;;;;;4972628;28;20053;-64
2022/07/13 05:20:11;;;;;;;1.77;0.70;;;;;;;;;;4972823;28;20076;-63
2022/07/13 05:22:37;;;;;;;0.63;0.63;;;;;;;;;;4972743;28;20111;-62
2022/07/13 05:25:03;;;;;;;0.70;0.57;;;;;;;;;;4972628;28;20021;-61
2022/07/13 05:27:28;;;;;;;0.88;0.60;;;;;;;;;;4972886;28;20420;-61
2022/07/13 05:29:53;;;;;;;1.33;0.68;;;;;;;;;;4971967;28;20464;-62
2022/07/13 05:32:19;;;;;;;2.25;1.15;;;;;;;;;;4972132;28;20474;-61
2022/07/13 05:34:44;;;;;;;1.23;0.82;;;;;;;;;;4972397;28;20512;-62
2022/07/13 05:37:10;;;;;;;2.28;0.70;;;;;;;;;;4972071;28;20294;-63
2022/07/13 05:39:35;;;;;;;2.50;0.73;;;;;;;;;;4972567;28;20051;-61
2022/07/13 05:42:01;;;;;;;2.33;0.80;;;;;;;;;;4972184;28;20048;-62
2022/07/13 05:44:26;;;;;;;0.90;0.75;;;;;;;;;;4972118;28;20459;-61
2022/07/13 05:46:52;;;;;;;2.22;0.88;;;;;;;;;;4972190;28;20025;-61
2022/07/13 05:49:17;;;;;;;1.23;0.80;;;;;;;;;;4971787;28;20348;-62
2022/07/13 05:51:42;;;;;;;0.65;0.50;;;;;;;;;;4972172;28;20436;-62
2022/07/13 05:54:08;;;;;;;1.17;0.70;;;;;;;;;;4973294;28;20436;-61
2022/07/13 05:56:33;;;;;;;1.55;0.80;;;;;;;;;;4972183;28;20458;-62
2022/07/13 05:58:59;;;;;;;1.73;0.65;;;;;;;;;;4972054;28;20030;-62
2022/07/13 06:01:25;;;;;;;2.03;0.73;;;;;;;;;;4973827;28;20029;-61
2022/07/13 06:03:50;;;;;;;1.17;0.70;;;;;;;;;;4971696;28;20471;-62
2022/07/13 06:06:15;;;;;;;1.60;0.90;;;;;;;;;;4972054;28;20444;-61
2022/07/13 06:08:41;;;;;;;1.30;0.82;;;;;;;;;;4972238;28;20124;-62
2022/07/13 06:11:06;;;;;;;1.08;0.68;;;;;;;;;;4972175;28;20372;-62
2022/07/13 06:13:32;;;;;;;1.25;0.70;;;;;;;;;;4971647;28;20419;-61
2022/07/13 06:15:59;;;;;;;1.25;0.82;;;;;;;;;;4972631;28;20504;-61
2022/07/13 06:18:25;;;;;;;0.77;0.60;;;;;;;;;;4954611;28;20104;-61
2022/07/13 06:20:50;;;;;;;1.77;0.70;;;;;;;;;;4971398;28;20454;-61
2022/07/13 06:23:16;;;;;;;1.10;0.60;;;;;;;;;;4970882;28;20571;-62
2022/07/13 06:25:43;;;;;;;1.05;0.68;;;;;;;;;;4971430;28;20357;-62
2022/07/13 06:28:08;;;;;;;0.70;0.60;;;;;;;;;;4971663;28;20030;-61
2022/07/13 06:30:34;;;;;;;1.40;0.90;;;;;;;;;;4971226;28;20046;-61
2022/07/13 06:33:00;;;;;;;0.98;0.50;;;;;;;;;;4971213;28;20379;-64
2022/07/13 06:35:25;;;;;;;1.88;0.70;;;;;;;;;;4971078;28;20524;-61
2022/07/13 06:37:51;;;;;;;1.67;0.65;;;;;;;;;;4971703;28;20420;-62
2022/07/13 06:40:16;;;;;;;1.85;0.60;;;;;;;;;;4971028;28;20479;-61
2022/07/13 06:42:43;;;;;;;0.93;0.73;;;;;;;;;;4971681;28;20464;-61
2022/07/13 06:45:08;;;;;;;2.28;0.60;;;;;;;;;;4971412;28;20511;-61
2022/07/13 06:47:34;;;;;;;1.05;0.50;;;;;;;;;;4972467;28;20419;-62
2022/07/13 06:49:59;;;;;;;2.58;0.80;;;;;;;;;;4970935;28;20055;-62
2022/07/13 06:52:25;;;;;;;1.20;0.80;;;;;;;;;;4970998;28;20368;-61
2022/07/13 06:54:50;;;;;;;0.85;0.60;;;;;;;;;;4971258;28;20428;-61
2022/07/13 06:57:15;;;;;;;1.25;0.80;;;;;;;;;;4972521;28;20148;-61
2022/07/13 06:59:42;;;;;;;2.65;0.65;;;;;;;;;;4970874;28;20048;-61
2022/07/13 07:02:08;;;;;;;1.13;0.68;;;;;;;;;;4970846;28;20321;-62
2022/07/13 07:04:34;;;;;;;1.75;0.40;;;;;;;;;;4970412;28;20318;-61
2022/07/13 07:07:00;;;;;;;1.25;0.57;;;;;;;;;;4970822;28;20433;-61
2022/07/13 07:09:26;;;;;;;0.88;0.70;;;;;;;;;;4970670;28;20371;-62
2022/07/13 07:11:51;;;;;;;0.73;0.55;;;;;;;;;;4970605;28;20384;-61
2022/07/13 07:14:17;;;;;;;0.75;0.43;;;;;;;;;;4970636;28;20352;-62
2022/07/13 07:16:42;;;;;;;2.53;0.60;;;;;;;;;;4971355;28;20347;-61
2022/07/13 07:19:09;;;;;;;1.83;0.80;;;;;;;;;;4971598;28;20030;-61
2022/07/13 07:21:34;;;;;;;1.67;1.17;;;;;;;;;;4970419;28;20479;-61
2022/07/13 07:24:00;;;;;;;1.05;0.73;;;;;;;;;;4970780;28;20426;-61
2022/07/13 07:26:25;;;;;;;0.60;0.43;;;;;;;;;;4970296;28;20344;-61
2022/07/13 07:28:50;;;;;;;0.60;0.50;;;;;;;;;;4971432;28;20412;-61
2022/07/13 07:31:16;;;;;;;1.05;0.68;;;;;;;;;;4970567;28;20447;-62
2022/07/13 07:33:41;;;;;;;2.53;0.60;;;;;;;;;;4970067;28;20121;-61
2022/07/13 07:36:07;;;;;;;4.82;0.80;;;;;;;;;;4969601;28;20408;-61
2022/07/13 07:38:32;;;;;;;2.22;0.68;;;;;;;;;;4969832;28;20491;-62
2022/07/13 07:40:58;;;;;;;1.88;0.52;;;;;;;;;;4970200;28;20452;-62
2022/07/13 07:43:24;;;;;;;1.33;0.57;;;;;;;;;;4970099;28;20425;-61
2022/07/13 07:45:49;;;;;;;0.73;0.45;;;;;;;;;;4971139;28;20440;-62
2022/07/13 07:48:15;;;;;;;1.13;0.57;;;;;;;;;;4969723;28;20029;-62
2022/07/13 07:50:40;;;;;;;3.20;0.63;;;;;;;;;;4970163;28;20452;-61
2022/07/13 07:53:06;;;;;;;1.90;0.77;;;;;;;;;;4970079;28;20429;-61
2022/07/13 07:55:31;;;;;;;2.95;0.60;;;;;;;;;;4969807;28;20061;-61
2022/07/13 07:57:57;;;;;;;0.50;0.45;;;;;;;;;;4969849;28;20451;-61
2022/07/13 08:00:22;;;;;;;0.60;0.43;;;;;;;;;;4969570;28;20433;-61
2022/07/13 08:02:48;;;;;;;0.50;0.50;;;;;;;;;;4970383;28;20364;-61
2022/07/13 08:05:14;;;;;;;0.60;0.40;;;;;;;;;;4969448;28;20132;-62
2022/07/13 08:07:43;;;;;;;1.08;0.57;;;;;;;;;;4970229;28;20372;-62
2022/07/13 08:10:10;;;;;;;2.30;0.60;;;;;;;;;;4951846;28;20492;-62
2022/07/13 08:12:35;;;;;;;0.40;0.40;;;;;;;;;;4969509;28;20116;-61
2022/07/13 08:15:00;;;;;;;2.65;0.47;;;;;;;;;;4970726;28;20503;-63
2022/07/13 08:17:26;;;;;;;0.85;0.60;;;;;;;;;;4971026;28;20377;-63
2022/07/13 08:19:51;;;;;;;0.65;0.52;;;;;;;;;;4969790;28;20056;-62
2022/07/13 08:22:16;;;;;;;1.42;0.40;;;;;;;;;;4970507;28;20040;-61
2022/07/13 08:24:42;;;;;;;0.63;0.60;;;;;;;;;;4969406;28;20427;-61
2022/07/13 08:27:08;;;;;;;1.92;0.82;;;;;;;;;;4969828;28;20333;-62
2022/07/13 08:29:34;;;;;;;0.70;0.50;;;;;;;;;;4969023;28;20460;-61
2022/07/13 08:32:00;;;;;;;1.92;0.60;;;;;;;;;;4969649;28;20335;-62
2022/07/13 08:39:53;;;;;;;1.88;0.65;;;;;;;;;;4970122;28;20495;-61
2022/07/13 08:42:18;;;;;;;0.60;0.30;;;;;;;;;;4970757;28;20448;-61
2022/07/13 08:44:44;;;;;;;0.75;0.63;;;;;;;;;;4970477;28;20424;-61
2022/07/13 08:47:10;;;;;;;0.80;0.55;;;;;;;;;;4952542;28;20021;-61
2022/07/13 08:49:36;;;;;;;0.82;0.68;;;;;;;;;;4973091;28;20146;-61
2022/07/13 08:52:01;;;;;;;0.82;0.55;;;;;;;;;;4973010;28;20112;-62
2022/07/13 08:54:29;;;;;;;0.90;0.45;;;;;;;;;;4973546;28;20048;-61
2022/07/13 08:56:55;;;;;;;0.83;0.57;;;;;;;;;;4973365;28;20026;-61
2022/07/13 08:59:20;;;;;;;0.85;0.50;;;;;;;;;;4973014;28;20048;-60
2022/07/13 09:01:46;;;;;;;0.40;0.40;;;;;;;;;;4974115;28;20341;-62
2022/07/13 09:04:11;;;;;;;0.65;0.50;;;;;;;;;;4973135;28;20395;-61
2022/07/13 09:06:48;;;;;;;0.82;0.30;;;;;;;;;;4973158;28;20496;-61
2022/07/13 09:09:31;;;;;;;1.17;0.55;;;;;;;;;;4972887;28;20095;-61
2022/07/13 09:12:16;;;;;;;1.15;0.30;;;;;;;;;;4972958;28;20449;-61
2022/07/13 09:14:50;;;;;;;1.67;0.60;;;;;;;;;;4972403;28;20384;-61
2022/07/13 09:17:26;;;;;;;2.15;0.68;;;;;;;;;;4972917;28;20395;-62
2022/07/13 09:19:51;;;;;;;1.42;0.50;;;;;;;;;;4972751;28;20406;-62
2022/07/13 09:22:16;;;;;;;1.30;0.50;;;;;;;;;;4973612;28;20029;-62
2022/07/13 09:24:46;;;;;;;0.93;0.50;;;;;;;;;;4972740;28;20421;-61
2022/07/13 09:27:13;;;;;;;1.35;0.63;;;;;;;;;;4972859;28;20033;-61
2022/07/13 09:29:38;;;;;;;2.10;0.93;;;;;;;;;;4971875;28;20057;-61
2022/07/13 09:32:07;;;;;;;0.40;0.40;;;;;;;;;;4972529;28;20048;-62
2022/07/13 09:34:45;;;;;;;1.05;0.35;;;;;;;;;;4972321;28;20542;-62
2022/07/13 09:37:11;;;;;;;0.75;0.55;;;;;;;;;;4971765;28;20096;-62
2022/07/13 09:39:59;;;;;;;0.80;0.50;;;;;;;;;;4973346;28;20435;-61
2022/07/13 09:42:45;;;;;;;1.15;0.50;;;;;;;;;;4972367;28;20106;-61
2022/07/13 09:47:58;;;;;;;0.45;0.45;;;;;;;;;;4972319;28;20111;-61
2022/07/13 09:50:36;;;;;;;1.52;0.55;;;;;;;;;;4972138;28;20447;-61
2022/07/13 09:53:03;;;;;;;2.20;0.80;;;;;;;;;;4972452;28;20127;-61
2022/07/13 09:55:32;;;;;;;6.18;0.80;;;;;;;;;;4972394;28;20464;-61
2022/07/13 09:57:59;;;;;;;1.70;0.68;;;;;;;;;;4972254;28;20544;-62
2022/07/13 10:00:24;;;;;;;0.70;0.50;;;;;;;;;;4971705;28;20026;-62
2022/07/13 10:02:50;;;;;;;0.63;0.45;;;;;;;;;;4973566;28;20099;-63
2022/07/13 10:05:18;;;;;;;0.95;0.50;;;;;;;;;;4972526;28;20025;-61
2022/07/13 10:07:45;;;;;;;0.75;0.50;;;;;;;;;;4971738;28;20449;-61
2022/07/13 10:10:12;;;;;;;2.25;0.60;;;;;;;;;;4971497;28;20321;-62
2022/07/13 10:12:37;;;;;;;0.60;0.47;;;;;;;;;;4971716;28;20345;-61
2022/07/13 10:15:06;;;;;;;0.75;0.40;;;;;;;;;;4971979;28;20336;-62
2022/07/13 10:17:32;;;;;;;0.57;0.47;;;;;;;;;;4971739;28;20498;-61
2022/07/13 10:20:15;;;;;;;3.00;0.38;;;;;;;;;;4954241;28;20425;-61
2022/07/13 10:22:45;;;;;;;0.40;0.40;;;;;;;;;;4971546;28;20535;-61
2022/07/13 10:25:11;;;;;;;0.32;0.25;;;;;;;;;;4971892;28;20328;-62
2022/07/13 10:27:37;;;;;;;1.25;0.52;;;;;;;;;;4953632;28;20034;-61
2022/07/13 10:30:08;;;;;;;0.60;0.40;;;;;;;;;;4970708;28;20433;-61
2022/07/13 10:32:35;;;;;;;0.73;0.30;;;;;;;;;;4971332;28;20401;-61
2022/07/13 10:35:11;;;;;;;0.47;0.40;;;;;;;;;;4970953;28;20343;-61
2022/07/13 10:37:55;;;;;;;0.73;0.32;;;;;;;;;;4971444;28;20440;-61
2022/07/13 10:40:22;;;;;;;0.55;0.50;;;;;;;;;;4971434;28;20391;-61
2022/07/13 10:42:54;;;;;;;0.65;0.43;;;;;;;;;;4971118;28;20468;-60
2022/07/13 10:45:32;;;;;;;1.15;0.45;;;;;;;;;;4971417;28;20484;-61
2022/07/13 10:47:58;;;;;;;0.90;0.57;;;;;;;;;;4971279;28;20033;-61
2022/07/13 10:50:26;;;;;;;1.13;0.70;;;;;;;;;;4971072;28;20487;-61
2022/07/13 10:52:52;;;;;;;1.58;0.93;;;;;;;;;;4972161;28;20464;-62
2022/07/13 10:55:23;;;;;;;1.50;0.40;;;;;;;;;;4971415;28;20408;-61
2022/07/13 10:57:49;;;;;;;0.15;0.15;;;;;;;;;;4971472;28;20557;-61
2022/07/13 11:00:19;;;;;;;0.77;0.45;;;;;;;;;;4971651;28;20507;-63
2022/07/13 11:02:56;;;;;;;0.68;0.43;;;;;;;;;;4970719;28;20380;-62
2022/07/13 11:05:26;;;;;;;0.43;0.25;;;;;;;;;;4970698;28;20389;-61
2022/07/13 11:07:52;;;;;;;0.80;0.50;;;;;;;;;;4970572;28;20480;-61
2022/07/13 11:10:21;;;;;;;0.77;0.50;;;;;;;;;;4970433;28;20428;-61
2022/07/13 11:13:00;;;;;;;0.85;0.50;;;;;;;;;;4970852;28;20029;-62
2022/07/13 11:15:52;;;;;;;;;;;;;;;;;;4971458;28;20325;-62
2022/07/13 11:18:28;;;;;;;1.17;0.40;;;;;;;;;;4967629;28;20320;-62
2022/07/13 11:21:01;;;;;;;0.90;0.40;;;;;;;;;;4970508;28;20420;-62
2022/07/13 11:26:18;;;;;;;0.95;0.38;;;;;;;;;;4971482;28;20056;-62
2022/07/13 11:28:46;;;;;;;0.57;0.30;;;;;;;;;;4969891;28;20435;-61
2022/07/13 11:31:13;;;;;;;0.30;0.30;;;;;;;;;;4970130;28;20119;-62
2022/07/13 11:33:48;;;;;;;0.73;0.43;;;;;;;;;;4970546;28;20402;-63
2022/07/13 11:36:14;;;;;;;0.63;0.30;;;;;;;;;;4969913;28;20026;-61
2022/07/13 11:38:39;;;;;;;4.80;0.40;;;;;;;;;;4952583;28;20448;-62
2022/07/13 11:41:05;;;;;;;1.20;0.20;;;;;;;;;;4971517;28;20443;-63
2022/07/13 11:43:31;;;;;;;0.68;0.20;;;;;;;;;;4970454;28;20029;-62
2022/07/13 11:45:56;;;;;;;1.45;0.30;;;;;;;;;;4971635;28;20431;-62
2022/07/13 11:48:24;;;;;;;1.88;0.50;;;;;;;;;;4952250;28;20414;-62
2022/07/13 11:50:52;;;;;;;1.95;0.50;;;;;;;;;;4971269;28;20056;-62
2022/07/13 11:53:30;;;;;;;0.55;0.35;;;;;;;;;;4970235;28;20345;-63
2022/07/13 11:55:58;;;;;;;0.93;0.82;;;;;;;;;;4969850;28;20387;-64
2022/07/13 11:58:29;;;;;;;3.95;0.30;;;;;;;;;;4969859;28;20448;-62
2022/07/13 12:00:55;;;;;;;0.20;0.20;;;;;;;;;;4951944;28;20321;-62
2022/07/13 12:03:33;;;;;;;0.73;0.30;;;;;;;;;;4969608;28;20021;-62
2022/07/13 12:06:07;;;;;;;1.15;0.30;;;;;;;;;;4969877;28;20408;-63
2022/07/13 12:08:34;;;;;;;0.65;0.40;;;;;;;;;;4970504;28;20609;-62
2022/07/13 12:11:01;;;;;;;0.60;0.32;;;;;;;;;;4970155;28;20391;-61
2022/07/13 12:13:27;;;;;;;3.17;0.50;;;;;;;;;;4971107;28;20376;-61
2022/07/13 12:15:53;;;;;;;1.27;0.40;;;;;;;;;;4951970;28;20545;-63
2022/07/13 12:18:19;;;;;;;0.30;0.20;;;;;;;;;;4952325;28;20473;-61
2022/07/13 12:20:44;;;;;;;0.30;0.30;;;;;;;;;;4969510;28;20336;-62
2022/07/13 12:23:10;;;;;;;0.88;0.30;;;;;;;;;;4970621;28;20313;-62
2022/07/13 12:25:37;;;;;;;1.75;0.20;;;;;;;;;;4969728;28;20493;-61
2022/07/13 12:28:06;;;;;;;0.50;0.30;;;;;;;;;;4969162;28;20331;-61
2022/07/13 12:30:33;;;;;;;1.10;0.45;;;;;;;;;;4968890;28;20387;-63
2022/07/13 12:33:05;;;;;;;0.90;0.35;;;;;;;;;;4970998;28;20037;-62
2022/07/13 12:35:40;;;;;;;0.25;0.20;;;;;;;;;;4969280;28;20375;-62
2022/07/13 12:38:14;;;;;;;0.20;0.20;;;;;;;;;;4970362;28;20396;-61
2022/07/13 12:40:49;;;;;;;0.75;0.50;;;;;;;;;;4968954;28;20056;-62
2022/07/13 12:43:21;;;;;;;1.17;0.50;;;;;;;;;;4970410;28;20492;-62
2022/07/13 12:46:00;;;;;;;1.20;0.30;;;;;;;;;;4968800;28;20348;-62
2022/07/13 12:48:25;;;;;;;0.45;0.22;;;;;;;;;;4969096;28;20440;-62
2022/07/13 12:51:06;;;;;;;1.65;0.50;;;;;;;;;;4969220;28;20382;-62
2022/07/13 12:53:47;;;;;;;1.95;0.40;;;;;;;;;;4970928;28;20397;-62
2022/07/13 12:56:14;;;;;;;2.17;0.40;;;;;;;;;;4969341;28;20419;-61
2022/07/13 12:58:48;;;;;;;2.90;0.35;;;;;;;;;;4968964;28;20348;-62
2022/07/13 13:01:29;;;;;;;1.20;0.50;;;;;;;;;;4970979;28;20372;-62
2022/07/13 13:03:55;;;;;;;1.00;0.43;;;;;;;;;;4969478;28;20033;-62
2022/07/13 13:06:20;;;;;;;4.95;0.30;;;;;;;;;;4969361;28;20438;-62
2022/07/13 13:08:46;;;;;;;0.30;0.30;;;;;;;;;;4968636;28;20060;-62
2022/07/13 13:11:11;;;;;;;2.38;1.02;;;;;;;;;;4968960;28;20455;-62
2022/07/13 13:13:37;;;;;;;6.65;1.40;;;;;;;;;;4968922;28;20435;-63
2022/07/13 13:16:02;;;;;;;11.93;1.08;;;;;;;;;;4980616;28;20037;-63
2022/07/13 13:18:28;;;;;;;11.85;1.20;;;;;;;;;;4988497;28;20329;-62
2022/07/13 13:20:53;;;;;;;6.47;0.60;;;;;;;;;;4988217;28;20087;-62
2022/07/13 13:23:18;;;;;;;14.38;0.98;;;;;;;;;;4989364;28;20335;-62
2022/07/13 13:25:44;;;;;;;5.78;0.90;;;;;;;;;;4988282;28;20382;-62
2022/07/13 13:28:09;;;;;;;13.85;1.00;;;;;;;;;;4988527;28;20401;-61
2022/07/13 13:30:44;;;;;;;10.13;0.68;;;;;;;;;;4987858;28;20456;-62
2022/07/13 13:33:17;;;;;;;10.90;0.57;;;;;;;;;;4988733;28;20048;-62
2022/07/13 13:35:44;;;;;;;0.85;0.50;;;;;;;;;;4992043;28;20355;-61
2022/07/13 13:38:09;;;;;;;0.50;0.50;;;;;;;;;;4992460;28;20533;-62
2022/07/13 13:40:39;;;;;;;7.10;0.75;;;;;;;;;;4992374;28;20497;-62
2022/07/13 13:43:04;;;;;;;2.70;0.80;;;;;;;;;;4992074;28;20029;-67
2022/07/13 13:45:31;;;;;;;5.63;0.95;;;;;;;;;;4992119;28;20408;-62
2022/07/13 13:47:56;;;;;;;6.25;1.17;;;;;;;;;;4992102;28;20436;-62
2022/07/13 13:50:22;;;;;;;10.30;0.88;;;;;;;;;;4993194;28;20408;-62
2022/07/13 13:52:49;;;;;;;5.28;0.50;;;;;;;;;;4991898;28;20325;-62
2022/07/13 13:55:14;;;;;;;4.85;0.65;;;;;;;;;;4991488;28;20402;-61
2022/07/13 13:57:40;;;;;;;5.63;0.73;;;;;;;;;;4991934;28;20313;-62
2022/07/13 14:00:07;;;;;;;17.05;1.95;;;;;;;;;;4991824;28;20388;-62
2022/07/13 14:02:32;;;;;;;1.00;0.60;;;;;;;;;;4993614;28;20312;-62
2022/07/13 14:04:59;;;;;;;2.38;0.50;;;;;;;;;;4991714;28;20064;-63
2022/07/13 14:07:25;;;;;;;2.25;0.85;;;;;;;;;;4991633;28;20347;-61
2022/07/13 14:09:50;;;;;;;2.15;0.73;;;;;;;;;;4991685;28;20331;-61
2022/07/13 14:12:16;;;;;;;2.63;0.85;;;;;;;;;;4991238;28;20361;-62
2022/07/13 14:14:41;;;;;;;2.47;0.90;;;;;;;;;;4991783;28;20108;-61
2022/07/13 14:17:06;;;;;;;1.08;0.50;;;;;;;;;;4991170;28;20432;-61
2022/07/13 14:19:32;;;;;;;4.25;1.00;;;;;;;;;;4991063;28;20469;-62
2022/07/13 14:21:57;;;;;;;0.68;0.60;;;;;;;;;;4991176;28;20517;-62
2022/07/13 14:24:23;;;;;;;3.95;0.60;;;;;;;;;;4973401;28;20444;-62
2022/07/13 14:26:49;;;;;;;3.85;0.77;;;;;;;;;;4992656;28;20364;-62
2022/07/13 14:29:15;;;;;;;2.42;0.80;;;;;;;;;;4990909;28;20352;-61
2022/07/13 14:31:41;;;;;;;2.70;0.60;;;;;;;;;;4990911;28;20351;-61
2022/07/13 14:34:06;;;;;;;0.73;0.70;;;;;;;;;;4992564;28;20079;-62
2022/07/13 14:36:32;;;;;;;2.05;0.50;;;;;;;;;;4991124;28;20514;-61
2022/07/13 14:38:58;;;;;;;1.65;0.65;;;;;;;;;;4992830;28;20316;-62
2022/07/13 14:41:23;;;;;;;5.95;0.90;;;;;;;;;;4991046;28;20612;-62
2022/07/13 14:43:49;;;;;;;0.60;0.43;;;;;;;;;;4991398;28;20396;-63
2022/07/13 14:46:14;;;;;;;4.07;0.90;;;;;;;;;;4990353;28;20064;-61
2022/07/13 14:48:39;;;;;;;0.57;0.40;;;;;;;;;;4991129;28;20451;-62
2022/07/13 14:51:05;;;;;;;1.30;0.52;;;;;;;;;;4991980;28;20020;-61
2022/07/13 14:53:31;;;;;;;1.95;0.80;;;;;;;;;;4990586;28;20432;-62